TimeCDT,TemperatureF,Dew PointF,Humidity,Sea Level PressureIn,VisibilityMPH,Wind Direction,Wind SpeedMPH,Gust SpeedMPH,PrecipitationIn,Events,Conditions,WindDirDegrees,DateUTC
12:15 AM,71.6,68.0,88,30.01,10.0,Calm,Calm,-,N/A,,Clear,0,2013-08-08 05:15:00
12:35 AM,71.6,68.0,88,30.00,10.0,Calm,Calm,-,N/A,,Clear,0,2013-08-08 05:35:00
12:55 AM,71.6,68.0,88,30.00,10.0,Calm,Calm,-,N/A,,Clear,0,2013-08-08 05:55:00
1:15 AM,71.6,66.2,83,30.00,10.0,Calm,Calm,-,N/A,,Clear,0,2013-08-08 06:15:00
1:35 AM,69.8,66.2,88,30.00,10.0,Calm,Calm,-,N/A,,Clear,0,2013-08-08 06:35:00
1:55 AM,69.8,68.0,94,30.00,10.0,Calm,Calm,-,N/A,,Clear,0,2013-08-08 06:55:00
2:15 AM,71.6,68.0,88,29.99,10.0,SSE,4.6,-,N/A,,Clear,150,2013-08-08 07:15:00
2:35 AM,71.6,68.0,88,29.99,10.0,SE,3.5,-,N/A,,Clear,130,2013-08-08 07:35:00
2:55 AM,71.6,68.0,88,29.98,10.0,Calm,Calm,-,N/A,,Clear,0,2013-08-08 07:55:00
3:15 AM,71.6,66.2,83,29.98,10.0,SE,3.5,-,N/A,,Clear,140,2013-08-08 08:15:00
3:35 AM,71.6,66.2,83,29.97,10.0,SSE,3.5,-,N/A,,Clear,150,2013-08-08 08:35:00
3:55 AM,71.6,66.2,83,29.97,10.0,SE,4.6,-,N/A,,Clear,140,2013-08-08 08:55:00
4:15 AM,71.6,64.4,78,29.97,10.0,Calm,Calm,-,N/A,,Clear,0,2013-08-08 09:15:00
4:35 AM,69.8,64.4,83,29.97,10.0,Calm,Calm,-,N/A,,Clear,0,2013-08-08 09:35:00
4:55 AM,69.8,64.4,83,29.98,10.0,Calm,Calm,-,N/A,,Clear,0,2013-08-08 09:55:00
5:15 AM,69.8,64.4,83,29.98,10.0,SE,3.5,-,N/A,,Clear,140,2013-08-08 10:15:00
5:35 AM,69.8,64.4,83,29.99,10.0,Calm,Calm,-,N/A,,Clear,0,2013-08-08 10:35:00
5:55 AM,69.8,64.4,83,30.00,10.0,Calm,Calm,-,N/A,,Clear,0,2013-08-08 10:55:00
6:15 AM,69.8,64.4,83,30.00,10.0,Calm,Calm,-,N/A,,Scattered Clouds,0,2013-08-08 11:15:00
6:35 AM,69.8,64.4,83,29.99,10.0,Calm,Calm,-,N/A,,Scattered Clouds,0,2013-08-08 11:35:00
6:55 AM,69.8,64.4,83,29.99,10.0,Calm,Calm,-,N/A,,Scattered Clouds,0,2013-08-08 11:55:00
7:15 AM,69.8,64.4,83,30.00,10.0,Calm,Calm,-,N/A,,Clear,0,2013-08-08 12:15:00
7:35 AM,71.6,66.2,83,30.00,10.0,Calm,Calm,-,N/A,,Clear,0,2013-08-08 12:35:00
7:55 AM,73.4,66.2,78,30.01,10.0,Calm,Calm,-,N/A,,Clear,0,2013-08-08 12:55:00
8:15 AM,73.4,68.0,83,30.01,10.0,Calm,Calm,-,N/A,,Scattered Clouds,0,2013-08-08 13:15:00
8:35 AM,75.2,68.0,78,30.02,10.0,Calm,Calm,-,N/A,,Clear,0,2013-08-08 13:35:00
8:55 AM,75.2,68.0,78,30.02,10.0,SE,3.5,-,0.01,,Clear,130,2013-08-08 13:55:00
9:15 AM,77.0,68.0,74,30.02,10.0,SE,4.6,-,N/A,,Scattered Clouds,130,2013-08-08 14:15:00
9:35 AM,78.8,68.0,69,30.03,10.0,SE,4.6,-,N/A,,Mostly Cloudy,140,2013-08-08 14:35:00
9:55 AM,78.8,68.0,69,30.03,10.0,ESE,3.5,-,N/A,,Mostly Cloudy,120,2013-08-08 14:55:00
10:15 AM,78.8,69.8,74,30.03,10.0,ESE,3.5,-,N/A,,Mostly Cloudy,110,2013-08-08 15:15:00
10:35 AM,82.4,68.0,62,30.03,10.0,South,5.8,-,N/A,,Scattered Clouds,170,2013-08-08 15:35:00
10:55 AM,82.4,69.8,66,30.03,10.0,SE,5.8,-,N/A,,Scattered Clouds,140,2013-08-08 15:55:00
11:15 AM,80.6,69.8,70,30.03,10.0,ESE,4.6,-,N/A,,Scattered Clouds,120,2013-08-08 16:15:00
11:35 AM,80.6,71.6,74,30.03,10.0,SE,4.6,-,N/A,,Scattered Clouds,140,2013-08-08 16:35:00
11:55 AM,84.2,69.8,62,30.02,10.0,SSW,4.6,-,N/A,,Scattered Clouds,210,2013-08-08 16:55:00
12:15 PM,86.0,69.8,58,30.02,10.0,SSW,9.2,-,N/A,,Scattered Clouds,210,2013-08-08 17:15:00
12:35 PM,86.0,69.8,58,30.01,10.0,South,6.9,-,N/A,,Scattered Clouds,170,2013-08-08 17:35:00
12:55 PM,86.0,69.8,58,30.00,10.0,SSW,8.1,-,N/A,,Mostly Cloudy,210,2013-08-08 17:55:00
1:15 PM,86.0,69.8,58,29.99,10.0,SW,6.9,-,N/A,,Mostly Cloudy,220,2013-08-08 18:15:00
1:35 PM,87.8,69.8,55,29.99,10.0,SSE,5.8,-,N/A,,Mostly Cloudy,150,2013-08-08 18:35:00
1:55 PM,86.0,71.6,62,29.98,10.0,ESE,8.1,-,N/A,,Mostly Cloudy,120,2013-08-08 18:55:00
2:15 PM,84.2,71.6,66,29.98,10.0,ESE,4.6,-,N/A,,Mostly Cloudy,110,2013-08-08 19:15:00
2:35 PM,86.0,71.6,62,29.97,10.0,SE,6.9,-,N/A,,Overcast,140,2013-08-08 19:35:00
2:55 PM,86.0,71.6,62,29.97,10.0,SE,4.6,-,N/A,,Mostly Cloudy,140,2013-08-08 19:55:00
3:15 PM,86.0,71.6,62,29.98,10.0,SSE,3.5,-,N/A,Thunderstorm,Scattered Clouds,150,2013-08-08 20:15:00
3:35 PM,86.0,71.6,62,29.98,10.0,Calm,Calm,-,N/A,Thunderstorm,Thunderstorm,0,2013-08-08 20:35:00
3:55 PM,71.6,66.2,83,30.04,0.8,West,19.6,26.5,0.57,Rain-Thunderstorm,Heavy Thunderstorms and Rain,260,2013-08-08 20:55:00
4:15 PM,71.6,66.2,83,30.02,2.5,SSW,6.9,-,0.33,Rain-Thunderstorm,Heavy Thunderstorms and Rain,200,2013-08-08 21:15:00
4:35 PM,69.8,66.2,88,30.01,7.0,NE,6.9,-,0.36,Rain-Thunderstorm,Light Thunderstorms and Rain,50,2013-08-08 21:35:00
4:55 PM,71.6,68.0,88,30.01,10.0,Calm,Calm,-,0.37,Rain-Thunderstorm,Light Thunderstorms and Rain,0,2013-08-08 21:55:00
5:15 PM,71.6,68.0,88,30.00,10.0,South,3.5,-,N/A,,Clear,170,2013-08-08 22:15:00
5:35 PM,71.6,68.0,88,29.99,10.0,SE,5.8,-,N/A,Thunderstorm,Clear,140,2013-08-08 22:35:00
5:55 PM,71.6,68.0,88,29.99,10.0,South,4.6,-,N/A,,Clear,170,2013-08-08 22:55:00
6:15 PM,71.6,68.0,88,29.98,10.0,Calm,Calm,-,N/A,Thunderstorm,Clear,0,2013-08-08 23:15:00
6:35 PM,71.6,68.0,88,29.99,10.0,Calm,Calm,-,N/A,,Clear,0,2013-08-08 23:35:00
6:55 PM,71.6,68.0,88,30.01,10.0,South,5.8,-,N/A,,Clear,170,2013-08-08 23:55:00
7:15 PM,71.6,68.0,88,30.02,10.0,SSE,3.5,-,N/A,,Clear,150,2013-08-09 00:15:00
7:35 PM,71.6,68.0,88,30.02,10.0,Calm,Calm,-,N/A,,Clear,0,2013-08-09 00:35:00
7:55 PM,69.8,66.2,88,30.01,10.0,Calm,Calm,-,N/A,Thunderstorm,Clear,0,2013-08-09 00:55:00
8:15 PM,71.6,68.0,88,30.01,10.0,Calm,Calm,-,N/A,,Clear,0,2013-08-09 01:15:00
8:35 PM,71.6,68.0,88,30.00,10.0,ESE,4.6,-,N/A,Rain,Light Rain,120,2013-08-09 01:35:00
8:55 PM,71.6,68.0,88,30.00,10.0,SE,4.6,-,N/A,Rain,Light Rain,130,2013-08-09 01:55:00
9:15 PM,71.6,68.0,88,30.03,10.0,South,4.6,-,N/A,,Clear,190,2013-08-09 02:15:00
9:35 PM,71.6,68.0,88,30.03,10.0,Calm,Calm,-,N/A,Rain,Light Rain,0,2013-08-09 02:35:00
9:55 PM,71.6,68.0,88,30.03,10.0,SSE,3.5,-,N/A,,Clear,150,2013-08-09 02:55:00
10:15 PM,71.6,68.0,88,30.01,10.0,SE,3.5,-,N/A,,Clear,140,2013-08-09 03:15:00
10:35 PM,71.6,68.0,88,30.01,10.0,Calm,Calm,-,N/A,,Clear,0,2013-08-09 03:35:00
10:55 PM,71.6,68.0,88,30.00,10.0,Calm,Calm,-,N/A,,Clear,0,2013-08-09 03:55:00
11:15 PM,71.6,68.0,88,30.00,10.0,SSE,3.5,-,N/A,,Clear,150,2013-08-09 04:15:00
11:35 PM,71.6,68.0,88,30.00,10.0,Calm,Calm,-,N/A,,Clear,0,2013-08-09 04:35:00
11:55 PM,71.6,68.0,88,30.00,10.0,Calm,Calm,-,N/A,,Clear,0,2013-08-09 04:55:00